sensor_id;sensor_type;location;lat;lon;timestamp;P1;durP1;ratioP1;P2;durP2;ratioP2
6832;SDS011;3454;42.654;23.378;2022-08-05T00:00:05;3.35;;;3.05;;
6832;SDS011;3454;42.654;23.378;2022-08-05T00:02:32;3.53;;;3.20;;
6832;SDS011;3454;42.654;23.378;2022-08-05T00:04:57;3.25;;;2.97;;
6832;SDS011;3454;42.654;23.378;2022-08-05T00:07:23;6.75;;;3.20;;
6832;SDS011;3454;42.654;23.378;2022-08-05T00:09:48;3.15;;;2.85;;
6832;SDS011;3454;42.654;23.378;2022-08-05T00:12:14;3.40;;;3.10;;
6832;SDS011;3454;42.654;23.378;2022-08-05T00:14:39;3.50;;;3.15;;
6832;SDS011;3454;42.654;23.378;2022-08-05T00:17:05;4.22;;;3.05;;
6832;SDS011;3454;42.654;23.378;2022-08-05T00:19:30;6.25;;;3.05;;
6832;SDS011;3454;42.654;23.378;2022-08-05T00:21:56;3.47;;;3.17;;
6832;SDS011;3454;42.654;23.378;2022-08-05T00:24:21;3.50;;;3.20;;
6832;SDS011;3454;42.654;23.378;2022-08-05T00:26:47;3.10;;;2.80;;
6832;SDS011;3454;42.654;23.378;2022-08-05T00:29:12;4.20;;;3.10;;
6832;SDS011;3454;42.654;23.378;2022-08-05T00:31:38;3.40;;;3.10;;
6832;SDS011;3454;42.654;23.378;2022-08-05T00:34:03;4.47;;;3.45;;
6832;SDS011;3454;42.654;23.378;2022-08-05T00:36:29;5.30;;;3.03;;
6832;SDS011;3454;42.654;23.378;2022-08-05T00:38:55;4.03;;;3.60;;
6832;SDS011;3454;42.654;23.378;2022-08-05T00:41:28;7.88;;;3.65;;
6832;SDS011;3454;42.654;23.378;2022-08-05T00:43:57;3.05;;;2.85;;
6832;SDS011;3454;42.654;23.378;2022-08-05T00:46:23;3.97;;;3.58;;
6832;SDS011;3454;42.654;23.378;2022-08-05T00:48:49;4.80;;;3.13;;
6832;SDS011;3454;42.654;23.378;2022-08-05T00:51:15;3.75;;;3.45;;
6832;SDS011;3454;42.654;23.378;2022-08-05T00:53:42;3.88;;;3.58;;
6832;SDS011;3454;42.654;23.378;2022-08-05T00:56:08;4.45;;;3.22;;
6832;SDS011;3454;42.654;23.378;2022-08-05T00:58:34;5.05;;;3.08;;
6832;SDS011;3454;42.654;23.378;2022-08-05T01:00:59;3.75;;;3.45;;
6832;SDS011;3454;42.654;23.378;2022-08-05T01:03:25;3.47;;;3.17;;
6832;SDS011;3454;42.654;23.378;2022-08-05T01:05:51;5.07;;;3.20;;
6832;SDS011;3454;42.654;23.378;2022-08-05T01:08:17;6.50;;;3.58;;
6832;SDS011;3454;42.654;23.378;2022-08-05T01:10:48;8.20;;;3.35;;
6832;SDS011;3454;42.654;23.378;2022-08-05T01:13:22;4.13;;;2.80;;
6832;SDS011;3454;42.654;23.378;2022-08-05T01:15:55;5.82;;;3.42;;
6832;SDS011;3454;42.654;23.378;2022-08-05T01:18:25;5.80;;;3.38;;
6832;SDS011;3454;42.654;23.378;2022-08-05T01:26:34;4.97;;;3.50;;
6832;SDS011;3454;42.654;23.378;2022-08-05T01:29:04;4.07;;;3.67;;
6832;SDS011;3454;42.654;23.378;2022-08-05T01:31:38;4.50;;;3.60;;
6832;SDS011;3454;42.654;23.378;2022-08-05T01:34:27;4.10;;;2.97;;
6832;SDS011;3454;42.654;23.378;2022-08-05T01:37:18;4.20;;;3.70;;
6832;SDS011;3454;42.654;23.378;2022-08-05T01:39:44;4.20;;;3.80;;
6832;SDS011;3454;42.654;23.378;2022-08-05T01:42:12;3.72;;;3.35;;
6832;SDS011;3454;42.654;23.378;2022-08-05T01:44:40;5.07;;;3.45;;
6832;SDS011;3454;42.654;23.378;2022-08-05T01:47:08;3.75;;;3.45;;
6832;SDS011;3454;42.654;23.378;2022-08-05T01:49:35;4.72;;;3.67;;
6832;SDS011;3454;42.654;23.378;2022-08-05T01:52:04;3.50;;;3.20;;
6832;SDS011;3454;42.654;23.378;2022-08-05T01:54:31;6.80;;;3.70;;
6832;SDS011;3454;42.654;23.378;2022-08-05T01:57:05;3.80;;;3.42;;
6832;SDS011;3454;42.654;23.378;2022-08-05T01:59:34;5.22;;;3.53;;
6832;SDS011;3454;42.654;23.378;2022-08-05T02:02:01;5.35;;;3.75;;
6832;SDS011;3454;42.654;23.378;2022-08-05T02:04:27;3.35;;;3.05;;
6832;SDS011;3454;42.654;23.378;2022-08-05T02:06:58;5.00;;;3.65;;
6832;SDS011;3454;42.654;23.378;2022-08-05T02:09:23;7.68;;;3.80;;
6832;SDS011;3454;42.654;23.378;2022-08-05T02:11:52;4.15;;;3.75;;
6832;SDS011;3454;42.654;23.378;2022-08-05T02:14:26;4.10;;;3.70;;
6832;SDS011;3454;42.654;23.378;2022-08-05T02:16:58;3.78;;;3.17;;
6832;SDS011;3454;42.654;23.378;2022-08-05T02:19:30;4.40;;;3.47;;
6832;SDS011;3454;42.654;23.378;2022-08-05T02:22:07;4.22;;;3.83;;
6832;SDS011;3454;42.654;23.378;2022-08-05T02:24:38;5.10;;;3.95;;
6832;SDS011;3454;42.654;23.378;2022-08-05T02:27:06;4.22;;;3.65;;
6832;SDS011;3454;42.654;23.378;2022-08-05T02:29:34;5.85;;;4.03;;
6832;SDS011;3454;42.654;23.378;2022-08-05T02:32:01;3.90;;;3.40;;
6832;SDS011;3454;42.654;23.378;2022-08-05T02:34:29;4.85;;;3.95;;
6832;SDS011;3454;42.654;23.378;2022-08-05T02:36:58;5.38;;;3.97;;
6832;SDS011;3454;42.654;23.378;2022-08-05T02:39:28;7.97;;;4.13;;
6832;SDS011;3454;42.654;23.378;2022-08-05T02:41:58;5.85;;;3.45;;
6832;SDS011;3454;42.654;23.378;2022-08-05T02:44:25;4.50;;;4.07;;
6832;SDS011;3454;42.654;23.378;2022-08-05T02:46:54;4.45;;;4.05;;
6832;SDS011;3454;42.654;23.378;2022-08-05T02:49:20;4.30;;;3.90;;
6832;SDS011;3454;42.654;23.378;2022-08-05T02:51:47;4.60;;;3.70;;
6832;SDS011;3454;42.654;23.378;2022-08-05T02:54:13;4.20;;;3.65;;
6832;SDS011;3454;42.654;23.378;2022-08-05T02:56:40;4.07;;;3.67;;
6832;SDS011;3454;42.654;23.378;2022-08-05T02:59:08;7.38;;;3.70;;
6832;SDS011;3454;42.654;23.378;2022-08-05T03:01:36;6.38;;;3.50;;
6832;SDS011;3454;42.654;23.378;2022-08-05T03:04:07;3.83;;;3.53;;
6832;SDS011;3454;42.654;23.378;2022-08-05T03:06:37;3.97;;;3.35;;
6832;SDS011;3454;42.654;23.378;2022-08-05T03:09:03;3.80;;;3.50;;
6832;SDS011;3454;42.654;23.378;2022-08-05T03:11:29;4.75;;;3.95;;
6832;SDS011;3454;42.654;23.378;2022-08-05T03:13:55;3.97;;;3.60;;
6832;SDS011;3454;42.654;23.378;2022-08-05T03:16:20;4.35;;;3.42;;
6832;SDS011;3454;42.654;23.378;2022-08-05T03:18:46;4.20;;;3.80;;
6832;SDS011;3454;42.654;23.378;2022-08-05T03:21:13;6.32;;;4.03;;
6832;SDS011;3454;42.654;23.378;2022-08-05T03:23:39;4.70;;;3.70;;
6832;SDS011;3454;42.654;23.378;2022-08-05T03:26:07;4.30;;;3.20;;
6832;SDS011;3454;42.654;23.378;2022-08-05T03:28:33;3.85;;;3.53;;
6832;SDS011;3454;42.654;23.378;2022-08-05T03:30:59;3.85;;;3.35;;
6832;SDS011;3454;42.654;23.378;2022-08-05T03:33:26;4.45;;;3.85;;
6832;SDS011;3454;42.654;23.378;2022-08-05T03:35:53;5.55;;;3.30;;
6832;SDS011;3454;42.654;23.378;2022-08-05T03:38:23;4.32;;;3.90;;
6832;SDS011;3454;42.654;23.378;2022-08-05T03:40:49;3.58;;;3.28;;
6832;SDS011;3454;42.654;23.378;2022-08-05T03:43:15;5.40;;;3.60;;
6832;SDS011;3454;42.654;23.378;2022-08-05T03:45:41;6.18;;;3.75;;
6832;SDS011;3454;42.654;23.378;2022-08-05T03:48:07;5.03;;;3.78;;
6832;SDS011;3454;42.654;23.378;2022-08-05T03:50:42;4.40;;;3.75;;
6832;SDS011;3454;42.654;23.378;2022-08-05T03:53:17;4.93;;;3.78;;
6832;SDS011;3454;42.654;23.378;2022-08-05T03:55:56;5.78;;;3.70;;
6832;SDS011;3454;42.654;23.378;2022-08-05T03:58:27;3.78;;;3.47;;
6832;SDS011;3454;42.654;23.378;2022-08-05T04:00:57;7.78;;;3.80;;
6832;SDS011;3454;42.654;23.378;2022-08-05T04:03:26;4.35;;;3.53;;
6832;SDS011;3454;42.654;23.378;2022-08-05T04:05:52;6.15;;;3.92;;
6832;SDS011;3454;42.654;23.378;2022-08-05T04:08:19;6.82;;;3.92;;
6832;SDS011;3454;42.654;23.378;2022-08-05T04:10:45;6.90;;;3.97;;
6832;SDS011;3454;42.654;23.378;2022-08-05T04:13:11;4.22;;;3.83;;
6832;SDS011;3454;42.654;23.378;2022-08-05T04:15:37;9.13;;;3.83;;
6832;SDS011;3454;42.654;23.378;2022-08-05T04:18:05;7.32;;;4.43;;
6832;SDS011;3454;42.654;23.378;2022-08-05T04:20:31;5.60;;;4.28;;
6832;SDS011;3454;42.654;23.378;2022-08-05T04:22:56;5.10;;;3.80;;
6832;SDS011;3454;42.654;23.378;2022-08-05T04:25:21;5.53;;;3.50;;
6832;SDS011;3454;42.654;23.378;2022-08-05T04:27:54;6.32;;;4.00;;
6832;SDS011;3454;42.654;23.378;2022-08-05T04:30:19;3.75;;;3.42;;
6832;SDS011;3454;42.654;23.378;2022-08-05T04:32:45;5.20;;;4.13;;
6832;SDS011;3454;42.654;23.378;2022-08-05T04:35:10;4.35;;;3.75;;
6832;SDS011;3454;42.654;23.378;2022-08-05T04:37:36;5.20;;;3.75;;
6832;SDS011;3454;42.654;23.378;2022-08-05T04:40:02;6.20;;;3.90;;
6832;SDS011;3454;42.654;23.378;2022-08-05T04:42:28;4.93;;;4.20;;
6832;SDS011;3454;42.654;23.378;2022-08-05T04:44:53;4.50;;;4.03;;
6832;SDS011;3454;42.654;23.378;2022-08-05T04:47:18;5.10;;;4.03;;
6832;SDS011;3454;42.654;23.378;2022-08-05T04:49:44;5.32;;;3.90;;
6832;SDS011;3454;42.654;23.378;2022-08-05T04:52:09;4.85;;;3.75;;
6832;SDS011;3454;42.654;23.378;2022-08-05T04:54:34;4.13;;;3.83;;
6832;SDS011;3454;42.654;23.378;2022-08-05T04:57:00;4.43;;;3.80;;
6832;SDS011;3454;42.654;23.378;2022-08-05T04:59:25;5.80;;;4.40;;
6832;SDS011;3454;42.654;23.378;2022-08-05T05:01:51;5.88;;;4.50;;
6832;SDS011;3454;42.654;23.378;2022-08-05T05:04:16;4.53;;;4.13;;
6832;SDS011;3454;42.654;23.378;2022-08-05T05:06:42;5.15;;;4.32;;
6832;SDS011;3454;42.654;23.378;2022-08-05T05:09:09;5.38;;;4.57;;
6832;SDS011;3454;42.654;23.378;2022-08-05T05:11:35;4.95;;;4.28;;
6832;SDS011;3454;42.654;23.378;2022-08-05T05:14:00;6.05;;;4.18;;
6832;SDS011;3454;42.654;23.378;2022-08-05T05:16:27;5.03;;;4.40;;
6832;SDS011;3454;42.654;23.378;2022-08-05T05:18:53;4.53;;;4.13;;
6832;SDS011;3454;42.654;23.378;2022-08-05T05:21:18;4.22;;;3.50;;
6832;SDS011;3454;42.654;23.378;2022-08-05T05:23:44;5.25;;;4.07;;
6832;SDS011;3454;42.654;23.378;2022-08-05T05:26:09;4.90;;;4.38;;
6832;SDS011;3454;42.654;23.378;2022-08-05T05:28:35;5.95;;;4.68;;
6832;SDS011;3454;42.654;23.378;2022-08-05T05:31:00;5.22;;;4.65;;
6832;SDS011;3454;42.654;23.378;2022-08-05T05:33:26;7.40;;;4.47;;
6832;SDS011;3454;42.654;23.378;2022-08-05T05:35:52;5.45;;;4.40;;
6832;SDS011;3454;42.654;23.378;2022-08-05T05:38:17;7.65;;;4.88;;
6832;SDS011;3454;42.654;23.378;2022-08-05T05:40:43;5.20;;;4.63;;
6832;SDS011;3454;42.654;23.378;2022-08-05T05:43:08;5.25;;;4.70;;
6832;SDS011;3454;42.654;23.378;2022-08-05T05:45:34;4.97;;;4.45;;
6832;SDS011;3454;42.654;23.378;2022-08-05T05:47:59;4.90;;;4.50;;
6832;SDS011;3454;42.654;23.378;2022-08-05T05:50:24;11.10;;;4.97;;
6832;SDS011;3454;42.654;23.378;2022-08-05T05:52:50;5.78;;;4.80;;
6832;SDS011;3454;42.654;23.378;2022-08-05T05:55:16;11.32;;;4.70;;
6832;SDS011;3454;42.654;23.378;2022-08-05T05:57:43;7.75;;;4.85;;
6832;SDS011;3454;42.654;23.378;2022-08-05T06:00:14;5.18;;;4.68;;
6832;SDS011;3454;42.654;23.378;2022-08-05T06:02:44;4.80;;;4.40;;
6832;SDS011;3454;42.654;23.378;2022-08-05T06:05:12;5.32;;;4.90;;
6832;SDS011;3454;42.654;23.378;2022-08-05T06:07:39;6.10;;;4.80;;
6832;SDS011;3454;42.654;23.378;2022-08-05T06:10:05;7.15;;;4.70;;
6832;SDS011;3454;42.654;23.378;2022-08-05T06:12:33;9.35;;;4.85;;
6832;SDS011;3454;42.654;23.378;2022-08-05T06:14:59;5.65;;;4.90;;
6832;SDS011;3454;42.654;23.378;2022-08-05T06:17:26;13.57;;;5.70;;
6832;SDS011;3454;42.654;23.378;2022-08-05T06:19:52;7.10;;;5.53;;
6832;SDS011;3454;42.654;23.378;2022-08-05T06:22:27;5.88;;;4.97;;
6832;SDS011;3454;42.654;23.378;2022-08-05T06:24:55;7.18;;;5.25;;
6832;SDS011;3454;42.654;23.378;2022-08-05T06:27:21;5.55;;;4.90;;
6832;SDS011;3454;42.654;23.378;2022-08-05T06:29:46;5.10;;;4.40;;
6832;SDS011;3454;42.654;23.378;2022-08-05T06:32:12;12.55;;;7.00;;
6832;SDS011;3454;42.654;23.378;2022-08-05T06:34:38;8.20;;;4.93;;
6832;SDS011;3454;42.654;23.378;2022-08-05T06:37:03;9.43;;;4.82;;
6832;SDS011;3454;42.654;23.378;2022-08-05T06:39:29;10.63;;;5.10;;
6832;SDS011;3454;42.654;23.378;2022-08-05T06:41:55;7.85;;;5.03;;
6832;SDS011;3454;42.654;23.378;2022-08-05T06:44:21;8.13;;;5.35;;
6832;SDS011;3454;42.654;23.378;2022-08-05T06:46:47;6.90;;;5.15;;
6832;SDS011;3454;42.654;23.378;2022-08-05T06:49:12;8.88;;;5.20;;
6832;SDS011;3454;42.654;23.378;2022-08-05T06:51:37;8.02;;;5.38;;
6832;SDS011;3454;42.654;23.378;2022-08-05T06:54:03;10.27;;;5.88;;
6832;SDS011;3454;42.654;23.378;2022-08-05T06:56:29;9.57;;;5.13;;
6832;SDS011;3454;42.654;23.378;2022-08-05T06:58:55;8.70;;;5.40;;
6832;SDS011;3454;42.654;23.378;2022-08-05T07:01:21;9.40;;;5.47;;
6832;SDS011;3454;42.654;23.378;2022-08-05T07:03:47;8.18;;;6.00;;
6832;SDS011;3454;42.654;23.378;2022-08-05T07:06:13;13.07;;;5.72;;
6832;SDS011;3454;42.654;23.378;2022-08-05T07:08:38;7.72;;;5.72;;
6832;SDS011;3454;42.654;23.378;2022-08-05T07:11:04;7.95;;;5.05;;
6832;SDS011;3454;42.654;23.378;2022-08-05T07:13:32;9.75;;;5.68;;
6832;SDS011;3454;42.654;23.378;2022-08-05T07:16:17;15.50;;;5.00;;
6832;SDS011;3454;42.654;23.378;2022-08-05T07:19:02;12.98;;;5.68;;
6832;SDS011;3454;42.654;23.378;2022-08-05T07:21:28;21.80;;;13.40;;
6832;SDS011;3454;42.654;23.378;2022-08-05T07:23:54;9.63;;;5.28;;
6832;SDS011;3454;42.654;23.378;2022-08-05T07:26:20;11.27;;;5.38;;
6832;SDS011;3454;42.654;23.378;2022-08-05T07:28:46;7.38;;;5.90;;
6832;SDS011;3454;42.654;23.378;2022-08-05T07:31:11;9.07;;;5.50;;
6832;SDS011;3454;42.654;23.378;2022-08-05T07:33:36;8.40;;;4.80;;
6832;SDS011;3454;42.654;23.378;2022-08-05T07:36:02;8.07;;;4.60;;
6832;SDS011;3454;42.654;23.378;2022-08-05T07:38:28;9.02;;;6.53;;
6832;SDS011;3454;42.654;23.378;2022-08-05T07:40:53;6.78;;;4.78;;
6832;SDS011;3454;42.654;23.378;2022-08-05T07:43:18;8.93;;;5.10;;
6832;SDS011;3454;42.654;23.378;2022-08-05T07:45:44;7.20;;;5.53;;
6832;SDS011;3454;42.654;23.378;2022-08-05T07:48:10;7.00;;;5.22;;
6832;SDS011;3454;42.654;23.378;2022-08-05T07:50:35;8.40;;;5.38;;
6832;SDS011;3454;42.654;23.378;2022-08-05T07:53:01;9.65;;;4.90;;
6832;SDS011;3454;42.654;23.378;2022-08-05T07:55:26;6.47;;;5.10;;
6832;SDS011;3454;42.654;23.378;2022-08-05T07:57:52;7.75;;;5.22;;
6832;SDS011;3454;42.654;23.378;2022-08-05T08:00:17;6.35;;;4.65;;
6832;SDS011;3454;42.654;23.378;2022-08-05T08:02:43;6.80;;;5.05;;
6832;SDS011;3454;42.654;23.378;2022-08-05T08:05:09;11.43;;;5.35;;
6832;SDS011;3454;42.654;23.378;2022-08-05T08:07:35;9.63;;;4.97;;
6832;SDS011;3454;42.654;23.378;2022-08-05T08:10:01;9.88;;;5.25;;
6832;SDS011;3454;42.654;23.378;2022-08-05T08:12:27;7.82;;;5.25;;
6832;SDS011;3454;42.654;23.378;2022-08-05T08:14:53;10.55;;;5.38;;
6832;SDS011;3454;42.654;23.378;2022-08-05T08:17:18;7.82;;;5.03;;
6832;SDS011;3454;42.654;23.378;2022-08-05T08:19:44;10.23;;;5.38;;
6832;SDS011;3454;42.654;23.378;2022-08-05T08:22:09;14.57;;;6.10;;
6832;SDS011;3454;42.654;23.378;2022-08-05T08:24:37;7.35;;;5.03;;
6832;SDS011;3454;42.654;23.378;2022-08-05T08:27:02;7.50;;;4.97;;
6832;SDS011;3454;42.654;23.378;2022-08-05T08:29:29;7.45;;;4.10;;
6832;SDS011;3454;42.654;23.378;2022-08-05T08:31:55;5.50;;;4.88;;
6832;SDS011;3454;42.654;23.378;2022-08-05T08:34:21;7.60;;;4.35;;
6832;SDS011;3454;42.654;23.378;2022-08-05T08:36:49;8.00;;;5.78;;
6832;SDS011;3454;42.654;23.378;2022-08-05T08:39:15;9.10;;;4.95;;
6832;SDS011;3454;42.654;23.378;2022-08-05T08:41:44;8.98;;;4.70;;
6832;SDS011;3454;42.654;23.378;2022-08-05T08:44:19;5.65;;;4.20;;
6832;SDS011;3454;42.654;23.378;2022-08-05T08:46:54;8.13;;;4.30;;
6832;SDS011;3454;42.654;23.378;2022-08-05T08:49:20;7.35;;;4.70;;
6832;SDS011;3454;42.654;23.378;2022-08-05T08:51:52;10.55;;;4.53;;
6832;SDS011;3454;42.654;23.378;2022-08-05T08:54:22;6.95;;;4.50;;
6832;SDS011;3454;42.654;23.378;2022-08-05T08:56:49;6.03;;;5.22;;
6832;SDS011;3454;42.654;23.378;2022-08-05T08:59:16;7.72;;;4.00;;
6832;SDS011;3454;42.654;23.378;2022-08-05T09:01:44;6.50;;;4.20;;
6832;SDS011;3454;42.654;23.378;2022-08-05T09:04:11;7.70;;;4.47;;
6832;SDS011;3454;42.654;23.378;2022-08-05T09:06:37;8.18;;;4.03;;
6832;SDS011;3454;42.654;23.378;2022-08-05T09:09:02;4.65;;;4.18;;
6832;SDS011;3454;42.654;23.378;2022-08-05T09:11:28;8.70;;;4.68;;
6832;SDS011;3454;42.654;23.378;2022-08-05T09:13:56;7.20;;;4.10;;
6832;SDS011;3454;42.654;23.378;2022-08-05T09:16:23;9.45;;;3.28;;
6832;SDS011;3454;42.654;23.378;2022-08-05T09:18:49;5.72;;;3.28;;
6832;SDS011;3454;42.654;23.378;2022-08-05T09:21:15;2.65;;;2.45;;
6832;SDS011;3454;42.654;23.378;2022-08-05T09:23:40;4.22;;;3.30;;
6832;SDS011;3454;42.654;23.378;2022-08-05T09:26:10;6.45;;;3.50;;
6832;SDS011;3454;42.654;23.378;2022-08-05T09:28:38;3.75;;;3.17;;
6832;SDS011;3454;42.654;23.378;2022-08-05T09:31:11;4.70;;;2.70;;
6832;SDS011;3454;42.654;23.378;2022-08-05T09:33:48;3.80;;;2.88;;
6832;SDS011;3454;42.654;23.378;2022-08-05T09:36:15;3.00;;;2.70;;
6832;SDS011;3454;42.654;23.378;2022-08-05T09:38:54;2.58;;;2.38;;
6832;SDS011;3454;42.654;23.378;2022-08-05T09:41:23;4.60;;;2.72;;
6832;SDS011;3454;42.654;23.378;2022-08-05T09:43:49;4.93;;;3.33;;
6832;SDS011;3454;42.654;23.378;2022-08-05T09:46:29;6.10;;;2.55;;
6832;SDS011;3454;42.654;23.378;2022-08-05T09:48:59;3.90;;;2.72;;
6832;SDS011;3454;42.654;23.378;2022-08-05T09:51:35;5.85;;;3.10;;
6832;SDS011;3454;42.654;23.378;2022-08-05T09:54:03;3.10;;;2.55;;
6832;SDS011;3454;42.654;23.378;2022-08-05T09:56:32;4.95;;;3.75;;
6832;SDS011;3454;42.654;23.378;2022-08-05T10:01:29;3.35;;;3.05;;
6832;SDS011;3454;42.654;23.378;2022-08-05T10:04:02;2.67;;;2.35;;
6832;SDS011;3454;42.654;23.378;2022-08-05T10:06:30;4.18;;;3.20;;
6832;SDS011;3454;42.654;23.378;2022-08-05T10:09:09;3.22;;;2.97;;
6832;SDS011;3454;42.654;23.378;2022-08-05T10:11:38;6.03;;;3.25;;
6832;SDS011;3454;42.654;23.378;2022-08-05T10:14:24;4.15;;;3.30;;
6832;SDS011;3454;42.654;23.378;2022-08-05T10:16:51;4.22;;;3.10;;
6832;SDS011;3454;42.654;23.378;2022-08-05T10:19:20;4.15;;;3.20;;
6832;SDS011;3454;42.654;23.378;2022-08-05T10:21:50;3.65;;;3.35;;
6832;SDS011;3454;42.654;23.378;2022-08-05T10:24:17;4.20;;;3.00;;
6832;SDS011;3454;42.654;23.378;2022-08-05T10:26:44;4.95;;;3.42;;
6832;SDS011;3454;42.654;23.378;2022-08-05T10:29:11;3.38;;;3.08;;
6832;SDS011;3454;42.654;23.378;2022-08-05T10:31:36;3.97;;;3.17;;
6832;SDS011;3454;42.654;23.378;2022-08-05T10:34:04;4.03;;;2.95;;
6832;SDS011;3454;42.654;23.378;2022-08-05T10:36:31;4.88;;;3.28;;
6832;SDS011;3454;42.654;23.378;2022-08-05T10:39:04;7.45;;;3.10;;
6832;SDS011;3454;42.654;23.378;2022-08-05T10:41:36;5.82;;;3.20;;
6832;SDS011;3454;42.654;23.378;2022-08-05T10:44:11;5.57;;;3.92;;
6832;SDS011;3454;42.654;23.378;2022-08-05T10:46:44;3.88;;;2.88;;
6832;SDS011;3454;42.654;23.378;2022-08-05T10:49:16;4.28;;;3.90;;
6832;SDS011;3454;42.654;23.378;2022-08-05T10:51:43;5.05;;;3.65;;
6832;SDS011;3454;42.654;23.378;2022-08-05T10:54:22;4.10;;;3.67;;
6832;SDS011;3454;42.654;23.378;2022-08-05T10:56:52;3.47;;;3.17;;
6832;SDS011;3454;42.654;23.378;2022-08-05T10:59:25;5.18;;;3.55;;
6832;SDS011;3454;42.654;23.378;2022-08-05T11:02:05;9.35;;;3.55;;
6832;SDS011;3454;42.654;23.378;2022-08-05T11:04:41;5.88;;;3.40;;
6832;SDS011;3454;42.654;23.378;2022-08-05T11:07:08;7.25;;;3.15;;
6832;SDS011;3454;42.654;23.378;2022-08-05T11:14:48;4.18;;;3.22;;
6832;SDS011;3454;42.654;23.378;2022-08-05T11:17:30;4.15;;;3.50;;
6832;SDS011;3454;42.654;23.378;2022-08-05T11:19:58;5.30;;;3.63;;
6832;SDS011;3454;42.654;23.378;2022-08-05T11:27:42;6.10;;;3.83;;
6832;SDS011;3454;42.654;23.378;2022-08-05T11:30:07;4.63;;;3.35;;
6832;SDS011;3454;42.654;23.378;2022-08-05T11:32:33;19.58;;;5.22;;
6832;SDS011;3454;42.654;23.378;2022-08-05T11:34:59;4.80;;;3.30;;
6832;SDS011;3454;42.654;23.378;2022-08-05T11:39:58;6.93;;;3.47;;
6832;SDS011;3454;42.654;23.378;2022-08-05T11:42:24;5.53;;;3.15;;
6832;SDS011;3454;42.654;23.378;2022-08-05T11:44:50;4.40;;;2.97;;
6832;SDS011;3454;42.654;23.378;2022-08-05T11:47:22;5.45;;;3.53;;
6832;SDS011;3454;42.654;23.378;2022-08-05T11:49:53;3.63;;;3.40;;
6832;SDS011;3454;42.654;23.378;2022-08-05T11:52:27;7.80;;;3.55;;
6832;SDS011;3454;42.654;23.378;2022-08-05T11:54:53;4.32;;;3.60;;
6832;SDS011;3454;42.654;23.378;2022-08-05T11:57:19;6.00;;;3.60;;
6832;SDS011;3454;42.654;23.378;2022-08-05T11:59:44;4.03;;;3.17;;
6832;SDS011;3454;42.654;23.378;2022-08-05T12:02:10;6.28;;;3.17;;
6832;SDS011;3454;42.654;23.378;2022-08-05T12:04:37;4.32;;;3.25;;
6832;SDS011;3454;42.654;23.378;2022-08-05T12:07:07;3.92;;;3.50;;
6832;SDS011;3454;42.654;23.378;2022-08-05T12:09:38;6.05;;;3.47;;
6832;SDS011;3454;42.654;23.378;2022-08-05T12:12:11;4.60;;;3.47;;
6832;SDS011;3454;42.654;23.378;2022-08-05T12:14:40;5.47;;;3.15;;
6832;SDS011;3454;42.654;23.378;2022-08-05T12:17:08;7.13;;;3.60;;
6832;SDS011;3454;42.654;23.378;2022-08-05T12:19:44;3.55;;;3.35;;
6832;SDS011;3454;42.654;23.378;2022-08-05T12:22:15;4.10;;;3.67;;
6832;SDS011;3454;42.654;23.378;2022-08-05T12:24:45;6.82;;;3.67;;
6832;SDS011;3454;42.654;23.378;2022-08-05T12:27:19;4.75;;;4.38;;
6832;SDS011;3454;42.654;23.378;2022-08-05T12:29:59;4.03;;;3.72;;
6832;SDS011;3454;42.654;23.378;2022-08-05T12:32:32;4.57;;;3.40;;
6832;SDS011;3454;42.654;23.378;2022-08-05T12:34:59;5.95;;;3.50;;
6832;SDS011;3454;42.654;23.378;2022-08-05T12:37:28;3.80;;;3.42;;
6832;SDS011;3454;42.654;23.378;2022-08-05T12:39:55;6.13;;;3.72;;
6832;SDS011;3454;42.654;23.378;2022-08-05T12:42:21;4.95;;;3.13;;
6832;SDS011;3454;42.654;23.378;2022-08-05T12:44:47;3.45;;;3.25;;
6832;SDS011;3454;42.654;23.378;2022-08-05T12:47:12;4.97;;;3.72;;
6832;SDS011;3454;42.654;23.378;2022-08-05T12:49:40;4.22;;;3.53;;
6832;SDS011;3454;42.654;23.378;2022-08-05T12:52:15;5.25;;;3.70;;
6832;SDS011;3454;42.654;23.378;2022-08-05T12:54:42;7.32;;;3.55;;
6832;SDS011;3454;42.654;23.378;2022-08-05T12:57:10;4.05;;;3.65;;
6832;SDS011;3454;42.654;23.378;2022-08-05T13:02:43;13.07;;;4.20;;
6832;SDS011;3454;42.654;23.378;2022-08-05T13:05:10;4.25;;;3.90;;
6832;SDS011;3454;42.654;23.378;2022-08-05T13:07:35;4.03;;;3.63;;
6832;SDS011;3454;42.654;23.378;2022-08-05T13:10:04;7.45;;;3.85;;
6832;SDS011;3454;42.654;23.378;2022-08-05T13:12:38;8.00;;;3.60;;
6832;SDS011;3454;42.654;23.378;2022-08-05T13:15:04;3.67;;;3.28;;
6832;SDS011;3454;42.654;23.378;2022-08-05T13:17:31;5.18;;;3.30;;
6832;SDS011;3454;42.654;23.378;2022-08-05T13:22:33;6.28;;;3.83;;
6832;SDS011;3454;42.654;23.378;2022-08-05T13:25:00;4.72;;;4.13;;
6832;SDS011;3454;42.654;23.378;2022-08-05T13:30:03;4.65;;;4.03;;
6832;SDS011;3454;42.654;23.378;2022-08-05T13:32:33;5.60;;;3.33;;
6832;SDS011;3454;42.654;23.378;2022-08-05T13:34:59;7.10;;;3.75;;
6832;SDS011;3454;42.654;23.378;2022-08-05T13:37:24;6.80;;;3.63;;
6832;SDS011;3454;42.654;23.378;2022-08-05T13:39:50;5.63;;;3.30;;
6832;SDS011;3454;42.654;23.378;2022-08-05T13:42:18;3.75;;;3.40;;
6832;SDS011;3454;42.654;23.378;2022-08-05T13:44:45;3.40;;;3.00;;
6832;SDS011;3454;42.654;23.378;2022-08-05T13:47:11;3.67;;;3.22;;
6832;SDS011;3454;42.654;23.378;2022-08-05T13:49:37;4.88;;;3.45;;
6832;SDS011;3454;42.654;23.378;2022-08-05T13:52:11;4.25;;;3.42;;
6832;SDS011;3454;42.654;23.378;2022-08-05T13:54:38;3.75;;;3.10;;
6832;SDS011;3454;42.654;23.378;2022-08-05T13:57:04;3.50;;;2.75;;
6832;SDS011;3454;42.654;23.378;2022-08-05T13:59:29;6.10;;;3.55;;
6832;SDS011;3454;42.654;23.378;2022-08-05T14:01:55;4.80;;;3.40;;
6832;SDS011;3454;42.654;23.378;2022-08-05T14:04:22;3.10;;;2.75;;
6832;SDS011;3454;42.654;23.378;2022-08-05T14:07:07;3.17;;;2.90;;
6832;SDS011;3454;42.654;23.378;2022-08-05T14:09:33;3.53;;;3.10;;
6832;SDS011;3454;42.654;23.378;2022-08-05T14:11:59;4.20;;;3.75;;
6832;SDS011;3454;42.654;23.378;2022-08-05T14:14:24;4.13;;;2.97;;
6832;SDS011;3454;42.654;23.378;2022-08-05T14:16:50;3.08;;;2.78;;
6832;SDS011;3454;42.654;23.378;2022-08-05T14:19:16;4.50;;;3.13;;
6832;SDS011;3454;42.654;23.378;2022-08-05T14:21:41;3.40;;;3.10;;
6832;SDS011;3454;42.654;23.378;2022-08-05T14:24:07;2.95;;;2.75;;
6832;SDS011;3454;42.654;23.378;2022-08-05T14:26:35;3.17;;;2.63;;
6832;SDS011;3454;42.654;23.378;2022-08-05T14:29:01;5.07;;;2.90;;
6832;SDS011;3454;42.654;23.378;2022-08-05T14:31:26;3.28;;;2.85;;
6832;SDS011;3454;42.654;23.378;2022-08-05T14:33:52;3.40;;;2.90;;
6832;SDS011;3454;42.654;23.378;2022-08-05T14:36:17;3.50;;;3.20;;
6832;SDS011;3454;42.654;23.378;2022-08-05T14:38:43;4.35;;;2.95;;
6832;SDS011;3454;42.654;23.378;2022-08-05T14:41:08;4.53;;;3.00;;
6832;SDS011;3454;42.654;23.378;2022-08-05T14:43:34;6.88;;;3.13;;
6832;SDS011;3454;42.654;23.378;2022-08-05T14:46:00;3.90;;;2.78;;
6832;SDS011;3454;42.654;23.378;2022-08-05T14:48:26;9.30;;;2.92;;
6832;SDS011;3454;42.654;23.378;2022-08-05T14:50:52;4.13;;;2.55;;
6832;SDS011;3454;42.654;23.378;2022-08-05T14:53:17;5.65;;;3.60;;
6832;SDS011;3454;42.654;23.378;2022-08-05T14:55:42;5.22;;;2.90;;
6832;SDS011;3454;42.654;23.378;2022-08-05T14:58:08;3.13;;;2.92;;
6832;SDS011;3454;42.654;23.378;2022-08-05T15:00:34;3.13;;;2.75;;
6832;SDS011;3454;42.654;23.378;2022-08-05T15:03:00;3.40;;;2.70;;
6832;SDS011;3454;42.654;23.378;2022-08-05T15:05:26;2.83;;;2.63;;
6832;SDS011;3454;42.654;23.378;2022-08-05T15:07:59;3.22;;;2.50;;
6832;SDS011;3454;42.654;23.378;2022-08-05T15:10:25;3.45;;;2.67;;
6832;SDS011;3454;42.654;23.378;2022-08-05T15:12:50;4.63;;;2.85;;
6832;SDS011;3454;42.654;23.378;2022-08-05T15:15:16;3.03;;;2.60;;
6832;SDS011;3454;42.654;23.378;2022-08-05T15:17:41;3.45;;;2.78;;
6832;SDS011;3454;42.654;23.378;2022-08-05T15:20:08;6.88;;;2.65;;
6832;SDS011;3454;42.654;23.378;2022-08-05T15:22:34;4.70;;;2.83;;
6832;SDS011;3454;42.654;23.378;2022-08-05T15:25:00;3.90;;;2.58;;
6832;SDS011;3454;42.654;23.378;2022-08-05T15:27:25;3.22;;;2.80;;
6832;SDS011;3454;42.654;23.378;2022-08-05T15:29:51;6.25;;;3.10;;
6832;SDS011;3454;42.654;23.378;2022-08-05T15:32:16;5.15;;;2.90;;